CCA121 ZBAA-ZKPY
Flight info
| Callsign | CCA121 |
|---|---|
| Flight time | 1h 32m |
| Altitude | 29100 |
| Route | DOTRA B334 KAKAT W31 CHG A575 BIDIB A345 GASAN |
| Aircraft | B738/M-SDE2E3FGHIRWXY/LB1 |
Departure
| Time | 2026-04-24 12:39 |
|---|---|
| Airport | Beijing Capital International Airport (ZBAA) |
Arrival
| Time | 2026-04-24 14:12 |
|---|---|
| Airport | Pyongyang Sunan International Airport (ZKPY) |
| Time | Latitude | Longitude | Altitude | Speed | Heading |
|---|---|---|---|---|---|
| 2026-04-24 11:53 | 40.07158 | 116.60513 | 120 ft | 0 kts | 83° |
| 2026-04-24 12:27 | 40.07156 | 116.60492 | 118 ft | 2 kts | 83° |
| 2026-04-24 12:27 | 40.07154 | 116.60471 | 117 ft | 2 kts | 83° |
| 2026-04-24 12:27 | 40.07152 | 116.60450 | 120 ft | 2 kts | 83° |
| 2026-04-24 12:28 | 40.07150 | 116.60428 | 120 ft | 2 kts | 83° |
| 2026-04-24 12:28 | 40.07151 | 116.60407 | 120 ft | 2 kts | 111° |
| 2026-04-24 12:28 | 40.07159 | 116.60389 | 119 ft | 2 kts | 139° |
| 2026-04-24 12:28 | 40.07173 | 116.60378 | 120 ft | 2 kts | 160° |
| 2026-04-24 12:29 | 40.07180 | 116.60375 | 119 ft | 0 kts | 168° |
| 2026-04-24 12:31 | 40.07165 | 116.60378 | 118 ft | 5 kts | 168° |
| 2026-04-24 12:31 | 40.07113 | 116.60388 | 121 ft | 11 kts | 173° |
| 2026-04-24 12:31 | 40.07025 | 116.60401 | 121 ft | 14 kts | 173° |
| 2026-04-24 12:32 | 40.06932 | 116.60415 | 121 ft | 13 kts | 176° |
| 2026-04-24 12:32 | 40.06879 | 116.60343 | 120 ft | 11 kts | 261° |
| 2026-04-24 12:32 | 40.06872 | 116.60281 | 120 ft | 0 kts | 262° |
| 2026-04-24 12:32 | 40.06872 | 116.60278 | 121 ft | 1 kts | 262° |
| 2026-04-24 12:33 | 40.06870 | 116.60262 | 122 ft | 3 kts | 262° |
| 2026-04-24 12:33 | 40.06867 | 116.60235 | 120 ft | 4 kts | 262° |
| 2026-04-24 12:33 | 40.06862 | 116.60189 | 123 ft | 7 kts | 262° |
| 2026-04-24 12:33 | 40.06853 | 116.60106 | 121 ft | 11 kts | 259° |
| 2026-04-24 12:34 | 40.06795 | 116.60056 | 120 ft | 11 kts | 173° |
| 2026-04-24 12:34 | 40.06717 | 116.60068 | 121 ft | 11 kts | 173° |
| 2026-04-24 12:34 | 40.06638 | 116.60079 | 121 ft | 12 kts | 173° |
| 2026-04-24 12:34 | 40.06545 | 116.60094 | 123 ft | 15 kts | 173° |
| 2026-04-24 12:35 | 40.06437 | 116.60110 | 121 ft | 17 kts | 173° |
| 2026-04-24 12:35 | 40.06315 | 116.60130 | 121 ft | 19 kts | 173° |
| 2026-04-24 12:35 | 40.06181 | 116.60152 | 121 ft | 20 kts | 173° |
| 2026-04-24 12:35 | 40.06042 | 116.60174 | 121 ft | 20 kts | 173° |
| 2026-04-24 12:36 | 40.05908 | 116.60195 | 119 ft | 19 kts | 173° |
| 2026-04-24 12:36 | 40.05787 | 116.60213 | 122 ft | 15 kts | 173° |
| 2026-04-24 12:36 | 40.05683 | 116.60230 | 121 ft | 15 kts | 173° |
| 2026-04-24 12:36 | 40.05599 | 116.60244 | 120 ft | 9 kts | 173° |
| 2026-04-24 12:37 | 40.05549 | 116.60215 | 122 ft | 8 kts | 242° |
| 2026-04-24 12:37 | 40.05541 | 116.60141 | 123 ft | 8 kts | 265° |
| 2026-04-24 12:37 | 40.05555 | 116.60073 | 123 ft | 8 kts | 305° |
| 2026-04-24 12:37 | 40.05601 | 116.60013 | 122 ft | 11 kts | 332° |
| 2026-04-24 12:38 | 40.05682 | 116.59994 | 120 ft | 14 kts | 352° |
| 2026-04-24 12:38 | 40.05878 | 116.59963 | 121 ft | 57 kts | 353° |
| 2026-04-24 12:38 | 40.06521 | 116.59860 | 120 ft | 126 kts | 352° |
| 2026-04-24 12:39 | 40.09834 | 116.59453 | 1638 ft | 170 kts | 351° |
| 2026-04-24 12:39 | 40.11016 | 116.59237 | 2395 ft | 174 kts | 349° |
| 2026-04-24 12:39 | 40.12256 | 116.59013 | 2962 ft | 191 kts | 350° |
| 2026-04-24 12:40 | 40.13688 | 116.58764 | 3222 ft | 221 kts | 351° |
| 2026-04-24 12:40 | 40.15315 | 116.58611 | 3413 ft | 244 kts | 354° |
| 2026-04-24 12:40 | 40.17016 | 116.58254 | 3954 ft | 251 kts | 348° |
| 2026-04-24 12:40 | 40.18794 | 116.57890 | 4428 ft | 268 kts | 352° |
| 2026-04-24 12:41 | 40.20678 | 116.57603 | 5148 ft | 275 kts | 353° |
| 2026-04-24 12:41 | 40.22584 | 116.57316 | 5989 ft | 277 kts | 352° |
| 2026-04-24 12:41 | 40.24513 | 116.57019 | 6843 ft | 280 kts | 352° |
| 2026-04-24 12:41 | 40.26450 | 116.56709 | 7707 ft | 281 kts | 352° |
| 2026-04-24 12:42 | 40.28402 | 116.56388 | 8411 ft | 285 kts | 352° |
| 2026-04-24 12:42 | 40.30364 | 116.56065 | 9038 ft | 285 kts | 352° |
| 2026-04-24 12:42 | 40.32361 | 116.55721 | 9452 ft | 297 kts | 352° |
| 2026-04-24 12:42 | 40.34412 | 116.55369 | 9325 ft | 295 kts | 352° |
| 2026-04-24 12:43 | 40.35755 | 116.55140 | 9293 ft | 292 kts | 352° |
| 2026-04-24 12:43 | 40.37737 | 116.54805 | 9434 ft | 282 kts | 352° |
| 2026-04-24 12:43 | 40.39710 | 116.54472 | 9694 ft | 291 kts | 352° |
| 2026-04-24 12:43 | 40.42449 | 116.54026 | 10475 ft | 310 kts | 355° |
| 2026-04-24 12:44 | 40.43921 | 116.54004 | 10598 ft | 329 kts | 2° |
| 2026-04-24 12:44 | 40.46283 | 116.54229 | 10902 ft | 349 kts | 4° |
| 2026-04-24 12:44 | 40.48730 | 116.54481 | 11570 ft | 356 kts | 3° |
| 2026-04-24 12:44 | 40.51204 | 116.54709 | 12443 ft | 358 kts | 5° |
| 2026-04-24 12:45 | 40.53622 | 116.55573 | 13307 ft | 365 kts | 24° |
| 2026-04-24 12:45 | 40.55722 | 116.57484 | 14143 ft | 371 kts | 38° |
| 2026-04-24 12:45 | 40.57691 | 116.59705 | 14916 ft | 376 kts | 39° |
| 2026-04-24 12:45 | 40.59673 | 116.61995 | 15684 ft | 381 kts | 39° |
| 2026-04-24 12:46 | 40.61675 | 116.64304 | 16461 ft | 385 kts | 39° |
| 2026-04-24 12:46 | 40.63677 | 116.66593 | 17204 ft | 390 kts | 38° |
| 2026-04-24 12:46 | 40.65778 | 116.68976 | 17996 ft | 394 kts | 38° |
| 2026-04-24 12:46 | 40.67866 | 116.71336 | 18710 ft | 398 kts | 38° |
| 2026-04-24 12:47 | 40.70685 | 116.74521 | 19483 ft | 401 kts | 38° |
| 2026-04-24 12:47 | 40.72103 | 116.76123 | 19806 ft | 406 kts | 38° |
| 2026-04-24 12:47 | 40.74262 | 116.78515 | 20542 ft | 406 kts | 33° |
| 2026-04-24 12:47 | 40.76784 | 116.80096 | 21223 ft | 402 kts | 12° |
| 2026-04-24 12:48 | 40.79541 | 116.80575 | 21928 ft | 400 kts | 0° |
| 2026-04-24 12:48 | 40.82332 | 116.80713 | 22595 ft | 402 kts | 359° |
| 2026-04-24 12:48 | 40.85142 | 116.80814 | 23159 ft | 407 kts | 359° |
| 2026-04-24 12:48 | 40.87993 | 116.80915 | 23691 ft | 411 kts | 359° |
| 2026-04-24 12:49 | 40.90862 | 116.81029 | 24201 ft | 414 kts | 359° |
| 2026-04-24 12:49 | 40.93753 | 116.81157 | 24712 ft | 417 kts | 359° |
| 2026-04-24 12:49 | 40.96664 | 116.81297 | 25193 ft | 420 kts | 359° |
| 2026-04-24 12:49 | 40.99590 | 116.81445 | 25683 ft | 423 kts | 359° |
| 2026-04-24 12:50 | 41.02544 | 116.81599 | 26178 ft | 425 kts | 359° |
| 2026-04-24 12:50 | 41.05506 | 116.81754 | 26637 ft | 428 kts | 359° |
| 2026-04-24 12:50 | 41.08481 | 116.81911 | 27050 ft | 431 kts | 359° |
| 2026-04-24 12:50 | 41.11490 | 116.82070 | 27477 ft | 434 kts | 359° |
| 2026-04-24 12:51 | 41.14516 | 116.82229 | 27940 ft | 436 kts | 359° |
| 2026-04-24 12:51 | 41.17542 | 116.82390 | 28563 ft | 434 kts | 359° |
| 2026-04-24 12:51 | 41.20544 | 116.82550 | 29079 ft | 433 kts | 359° |
| 2026-04-24 12:52 | 41.26595 | 116.82869 | 29068 ft | 433 kts | 359° |
| 2026-04-24 12:52 | 41.32566 | 116.83187 | 29090 ft | 428 kts | 359° |
| 2026-04-24 12:53 | 41.38537 | 116.83502 | 29099 ft | 430 kts | 359° |
| 2026-04-24 12:53 | 41.44504 | 116.83818 | 29091 ft | 429 kts | 359° |
| 2026-04-24 12:54 | 41.50458 | 116.84135 | 29094 ft | 427 kts | 359° |
| 2026-04-24 12:54 | 41.56372 | 116.84450 | 29109 ft | 424 kts | 359° |
| 2026-04-24 12:55 | 41.62262 | 116.84765 | 29110 ft | 422 kts | 359° |
| 2026-04-24 12:55 | 41.68039 | 116.86071 | 29128 ft | 432 kts | 22° |
| 2026-04-24 12:55 | 41.70552 | 116.88305 | 29109 ft | 442 kts | 37° |
| 2026-04-24 12:56 | 41.72592 | 116.91365 | 29110 ft | 452 kts | 53° |
| 2026-04-24 12:56 | 41.75412 | 116.98954 | 29123 ft | 457 kts | 62° |
| 2026-04-24 12:57 | 41.78013 | 117.06743 | 29118 ft | 458 kts | 62° |
| 2026-04-24 12:57 | 41.80651 | 117.14520 | 29106 ft | 459 kts | 61° |
| 2026-04-24 12:58 | 41.83329 | 117.22283 | 29116 ft | 459 kts | 61° |
| 2026-04-24 12:58 | 41.86019 | 117.30049 | 29119 ft | 459 kts | 61° |
| 2026-04-24 12:59 | 41.88704 | 117.37822 | 29114 ft | 459 kts | 61° |
| 2026-04-24 12:59 | 41.91379 | 117.45596 | 29103 ft | 458 kts | 62° |
| 2026-04-24 13:00 | 41.94043 | 117.53362 | 29122 ft | 458 kts | 62° |
| 2026-04-24 13:00 | 41.96704 | 117.61143 | 29136 ft | 459 kts | 61° |
| 2026-04-24 13:01 | 41.99367 | 117.68945 | 29130 ft | 459 kts | 61° |
| 2026-04-24 13:01 | 42.02020 | 117.76745 | 29128 ft | 459 kts | 62° |
| 2026-04-24 13:02 | 42.04671 | 117.84560 | 29139 ft | 459 kts | 62° |
| 2026-04-24 13:02 | 42.07308 | 117.92380 | 29137 ft | 459 kts | 62° |
| 2026-04-24 13:03 | 42.09917 | 118.00212 | 29139 ft | 458 kts | 62° |
| 2026-04-24 13:03 | 42.12520 | 118.08042 | 29130 ft | 458 kts | 62° |
| 2026-04-24 13:04 | 42.15120 | 118.15880 | 29140 ft | 458 kts | 62° |
| 2026-04-24 13:04 | 42.17595 | 118.23795 | 29135 ft | 462 kts | 70° |
| 2026-04-24 13:05 | 42.18546 | 118.32339 | 29143 ft | 469 kts | 86° |
| 2026-04-24 13:05 | 42.18591 | 118.41198 | 29131 ft | 470 kts | 87° |
| 2026-04-24 13:06 | 42.18641 | 118.50008 | 29127 ft | 470 kts | 86° |
| 2026-04-24 13:06 | 42.18743 | 118.58753 | 29139 ft | 469 kts | 86° |
| 2026-04-24 13:07 | 42.18853 | 118.67548 | 29129 ft | 469 kts | 86° |
| 2026-04-24 13:07 | 42.18903 | 118.76337 | 29125 ft | 470 kts | 91° |
| 2026-04-24 13:08 | 42.17487 | 118.84941 | 29143 ft | 474 kts | 110° |
| 2026-04-24 13:08 | 42.14478 | 118.92846 | 29134 ft | 474 kts | 119° |
| 2026-04-24 13:09 | 42.09673 | 119.04493 | 29129 ft | 474 kts | 118° |
| 2026-04-24 13:09 | 42.06531 | 119.12262 | 29128 ft | 473 kts | 118° |
| 2026-04-24 13:10 | 42.03397 | 119.20044 | 29130 ft | 473 kts | 118° |
| 2026-04-24 13:10 | 42.00262 | 119.27804 | 29127 ft | 472 kts | 118° |
| 2026-04-24 13:11 | 41.97118 | 119.35562 | 29133 ft | 472 kts | 118° |
| 2026-04-24 13:11 | 41.93970 | 119.43311 | 29136 ft | 472 kts | 119° |
| 2026-04-24 13:12 | 41.90864 | 119.51094 | 29132 ft | 473 kts | 118° |
| 2026-04-24 13:12 | 41.87782 | 119.58879 | 29136 ft | 473 kts | 118° |
| 2026-04-24 13:13 | 41.84683 | 119.66675 | 29130 ft | 473 kts | 118° |
| 2026-04-24 13:13 | 41.81571 | 119.74462 | 29124 ft | 474 kts | 119° |
| 2026-04-24 13:14 | 41.78450 | 119.82248 | 29133 ft | 474 kts | 119° |
| 2026-04-24 13:14 | 41.75329 | 119.90017 | 29136 ft | 474 kts | 119° |
| 2026-04-24 13:15 | 41.72194 | 119.97797 | 29127 ft | 475 kts | 120° |
| 2026-04-24 13:15 | 41.69052 | 120.05576 | 29131 ft | 475 kts | 120° |
| 2026-04-24 13:16 | 41.65902 | 120.13356 | 29119 ft | 476 kts | 120° |
| 2026-04-24 13:16 | 41.62737 | 120.21150 | 29124 ft | 477 kts | 120° |
| 2026-04-24 13:17 | 41.59569 | 120.28933 | 29115 ft | 477 kts | 120° |
| 2026-04-24 13:17 | 41.56390 | 120.36726 | 29122 ft | 478 kts | 120° |
| 2026-04-24 13:18 | 41.55021 | 120.40782 | 29109 ft | 480 kts | 109° |
| 2026-04-24 13:18 | 41.54213 | 120.45098 | 29121 ft | 481 kts | 99° |
| 2026-04-24 13:18 | 41.54108 | 120.53992 | 29119 ft | 480 kts | 84° |
| 2026-04-24 13:19 | 41.54667 | 120.62869 | 29106 ft | 481 kts | 84° |
| 2026-04-24 13:19 | 41.55191 | 120.71771 | 29120 ft | 481 kts | 84° |
| 2026-04-24 13:20 | 41.55658 | 120.80685 | 29118 ft | 481 kts | 85° |
| 2026-04-24 13:20 | 41.56102 | 120.89600 | 29123 ft | 481 kts | 85° |
| 2026-04-24 13:21 | 41.56542 | 120.98505 | 29111 ft | 480 kts | 85° |
| 2026-04-24 13:21 | 41.56977 | 121.07414 | 29122 ft | 480 kts | 85° |
| 2026-04-24 13:22 | 41.57407 | 121.16322 | 29122 ft | 480 kts | 85° |
| 2026-04-24 13:22 | 41.57945 | 121.25198 | 29129 ft | 480 kts | 83° |
| 2026-04-24 13:23 | 41.58683 | 121.34050 | 29121 ft | 480 kts | 82° |
| 2026-04-24 13:23 | 41.59416 | 121.42912 | 29118 ft | 479 kts | 83° |
| 2026-04-24 13:24 | 41.60105 | 121.51760 | 29132 ft | 479 kts | 83° |
| 2026-04-24 13:24 | 41.60772 | 121.60564 | 29136 ft | 479 kts | 84° |
| 2026-04-24 13:25 | 41.61439 | 121.69487 | 29128 ft | 480 kts | 84° |
| 2026-04-24 13:25 | 41.62094 | 121.78298 | 29127 ft | 480 kts | 84° |
| 2026-04-24 13:26 | 41.62747 | 121.87177 | 29128 ft | 480 kts | 84° |
| 2026-04-24 13:26 | 41.63394 | 121.96068 | 29121 ft | 480 kts | 84° |
| 2026-04-24 13:27 | 41.64034 | 122.04957 | 29150 ft | 480 kts | 84° |
| 2026-04-24 13:27 | 41.64338 | 122.13872 | 29111 ft | 482 kts | 96° |
| 2026-04-24 13:28 | 41.63527 | 122.21305 | 29132 ft | 482 kts | 100° |
| 2026-04-24 13:28 | 41.62263 | 122.31584 | 29123 ft | 482 kts | 100° |
| 2026-04-24 13:29 | 41.61389 | 122.38948 | 29132 ft | 483 kts | 100° |
| 2026-04-24 13:29 | 41.60359 | 122.47866 | 29132 ft | 482 kts | 100° |
| 2026-04-24 13:30 | 41.59346 | 122.56663 | 29124 ft | 482 kts | 100° |
| 2026-04-24 13:30 | 41.58322 | 122.65490 | 29132 ft | 480 kts | 100° |
| 2026-04-24 13:31 | 41.57290 | 122.74304 | 29124 ft | 479 kts | 100° |
| 2026-04-24 13:31 | 41.56254 | 122.83078 | 29130 ft | 478 kts | 100° |
| 2026-04-24 13:32 | 41.55214 | 122.91833 | 29127 ft | 477 kts | 100° |
| 2026-04-24 13:32 | 41.54169 | 123.00580 | 29150 ft | 477 kts | 100° |
| 2026-04-24 13:33 | 41.53114 | 123.09344 | 29136 ft | 479 kts | 100° |
| 2026-04-24 13:33 | 41.52049 | 123.18135 | 29135 ft | 481 kts | 100° |
| 2026-04-24 13:34 | 41.50974 | 123.26961 | 29136 ft | 482 kts | 100° |
| 2026-04-24 13:34 | 41.49933 | 123.35798 | 29143 ft | 481 kts | 99° |
| 2026-04-24 13:35 | 41.48962 | 123.44608 | 29147 ft | 479 kts | 99° |
| 2026-04-24 13:35 | 41.47988 | 123.53381 | 29124 ft | 478 kts | 99° |
| 2026-04-24 13:36 | 41.47006 | 123.62069 | 29128 ft | 476 kts | 99° |
| 2026-04-24 13:36 | 41.46008 | 123.70794 | 29144 ft | 476 kts | 98° |
| 2026-04-24 13:37 | 41.44999 | 123.79566 | 29156 ft | 476 kts | 99° |
| 2026-04-24 13:37 | 41.43994 | 123.88248 | 29144 ft | 477 kts | 99° |
| 2026-04-24 13:38 | 41.42977 | 123.96978 | 29146 ft | 477 kts | 99° |
| 2026-04-24 13:38 | 41.41903 | 124.05686 | 29134 ft | 477 kts | 105° |
| 2026-04-24 13:39 | 41.40602 | 124.09690 | 29172 ft | 472 kts | 125° |
| 2026-04-24 13:39 | 41.38471 | 124.12996 | 29141 ft | 466 kts | 143° |
| 2026-04-24 13:39 | 41.35811 | 124.15395 | 29149 ft | 459 kts | 156° |
| 2026-04-24 13:39 | 41.32858 | 124.16907 | 29149 ft | 451 kts | 172° |
| 2026-04-24 13:40 | 41.26678 | 124.17648 | 29164 ft | 447 kts | 182° |
| 2026-04-24 13:40 | 41.20431 | 124.18035 | 29158 ft | 451 kts | 182° |
| 2026-04-24 13:41 | 41.14146 | 124.18530 | 29155 ft | 454 kts | 181° |
| 2026-04-24 13:41 | 41.07837 | 124.19107 | 29156 ft | 455 kts | 181° |
| 2026-04-24 13:42 | 41.01519 | 124.19737 | 29164 ft | 456 kts | 180° |
| 2026-04-24 13:42 | 40.95212 | 124.20463 | 29166 ft | 454 kts | 180° |
| 2026-04-24 13:43 | 40.88926 | 124.21196 | 29159 ft | 452 kts | 180° |
| 2026-04-24 13:43 | 40.82675 | 124.21912 | 29175 ft | 450 kts | 180° |
| 2026-04-24 13:44 | 40.76458 | 124.22614 | 29179 ft | 448 kts | 180° |
| 2026-04-24 13:44 | 40.70241 | 124.23313 | 29170 ft | 448 kts | 180° |
| 2026-04-24 13:45 | 40.64036 | 124.24012 | 29176 ft | 447 kts | 180° |
| 2026-04-24 13:45 | 40.57838 | 124.24708 | 29181 ft | 447 kts | 180° |
| 2026-04-24 13:46 | 40.51678 | 124.25399 | 29177 ft | 447 kts | 180° |
| 2026-04-24 13:46 | 40.45477 | 124.26093 | 29182 ft | 448 kts | 180° |
| 2026-04-24 13:47 | 40.39231 | 124.26792 | 29192 ft | 447 kts | 180° |
| 2026-04-24 13:47 | 40.36166 | 124.27133 | 28533 ft | 452 kts | 180° |
| 2026-04-24 13:47 | 40.33035 | 124.27482 | 27835 ft | 447 kts | 179° |
| 2026-04-24 13:48 | 40.30009 | 124.28277 | 27206 ft | 450 kts | 162° |
| 2026-04-24 13:48 | 40.27303 | 124.30345 | 26627 ft | 451 kts | 143° |
| 2026-04-24 13:48 | 40.25178 | 124.33322 | 26180 ft | 448 kts | 128° |
| 2026-04-24 13:48 | 40.23717 | 124.36899 | 25563 ft | 447 kts | 109° |
| 2026-04-24 13:49 | 40.22864 | 124.40797 | 25015 ft | 442 kts | 104° |
| 2026-04-24 13:49 | 40.22094 | 124.44670 | 24421 ft | 439 kts | 105° |
| 2026-04-24 13:49 | 40.21289 | 124.48500 | 23827 ft | 435 kts | 107° |
| 2026-04-24 13:49 | 40.20154 | 124.52149 | 23174 ft | 431 kts | 118° |
| 2026-04-24 13:50 | 40.18596 | 124.55458 | 22650 ft | 424 kts | 124° |
| 2026-04-24 13:50 | 40.16966 | 124.58651 | 22024 ft | 420 kts | 125° |
| 2026-04-24 13:50 | 40.15348 | 124.61798 | 21446 ft | 416 kts | 125° |
| 2026-04-24 13:50 | 40.13745 | 124.64925 | 20849 ft | 412 kts | 125° |
| 2026-04-24 13:51 | 40.12159 | 124.68039 | 20277 ft | 409 kts | 125° |
| 2026-04-24 13:51 | 40.10595 | 124.71123 | 19698 ft | 406 kts | 125° |
| 2026-04-24 13:51 | 40.09043 | 124.74193 | 19136 ft | 403 kts | 125° |
| 2026-04-24 13:51 | 40.07505 | 124.77236 | 18571 ft | 401 kts | 125° |
| 2026-04-24 13:52 | 40.05975 | 124.80267 | 17943 ft | 399 kts | 125° |
| 2026-04-24 13:52 | 40.04455 | 124.83274 | 17327 ft | 396 kts | 125° |
| 2026-04-24 13:52 | 40.02948 | 124.86255 | 16738 ft | 392 kts | 125° |
| 2026-04-24 13:52 | 40.01450 | 124.89214 | 16178 ft | 388 kts | 125° |
| 2026-04-24 13:53 | 39.99968 | 124.92138 | 15619 ft | 385 kts | 126° |
| 2026-04-24 13:53 | 39.98498 | 124.95038 | 15073 ft | 381 kts | 126° |
| 2026-04-24 13:53 | 39.97044 | 124.97903 | 14530 ft | 378 kts | 126° |
| 2026-04-24 13:53 | 39.95591 | 125.00761 | 13991 ft | 376 kts | 126° |
| 2026-04-24 13:54 | 39.94168 | 125.03558 | 13703 ft | 368 kts | 126° |
| 2026-04-24 13:54 | 39.92757 | 125.06328 | 13436 ft | 364 kts | 126° |
| 2026-04-24 13:54 | 39.91343 | 125.09101 | 13174 ft | 370 kts | 126° |
| 2026-04-24 13:54 | 39.89918 | 125.11895 | 12925 ft | 373 kts | 126° |
| 2026-04-24 13:55 | 39.88476 | 125.14716 | 12666 ft | 373 kts | 126° |
| 2026-04-24 13:55 | 39.87044 | 125.17517 | 12404 ft | 372 kts | 126° |
| 2026-04-24 13:55 | 39.85618 | 125.20309 | 12212 ft | 371 kts | 126° |
| 2026-04-24 13:55 | 39.84188 | 125.23105 | 12157 ft | 371 kts | 126° |
| 2026-04-24 13:56 | 39.82760 | 125.25894 | 12158 ft | 370 kts | 126° |
| 2026-04-24 13:56 | 39.81329 | 125.28686 | 12151 ft | 370 kts | 126° |
| 2026-04-24 13:56 | 39.79901 | 125.31468 | 12156 ft | 370 kts | 125° |
| 2026-04-24 13:56 | 39.78468 | 125.34261 | 12156 ft | 371 kts | 125° |
| 2026-04-24 13:57 | 39.77054 | 125.37016 | 12142 ft | 360 kts | 125° |
| 2026-04-24 13:57 | 39.75692 | 125.39665 | 12146 ft | 347 kts | 126° |
| 2026-04-24 13:57 | 39.74374 | 125.42185 | 12131 ft | 329 kts | 129° |
| 2026-04-24 13:57 | 39.72715 | 125.44074 | 12140 ft | 308 kts | 153° |
| 2026-04-24 13:58 | 39.70756 | 125.45068 | 11845 ft | 300 kts | 171° |
| 2026-04-24 13:58 | 39.68709 | 125.45558 | 11589 ft | 298 kts | 174° |
| 2026-04-24 13:58 | 39.66660 | 125.45969 | 11330 ft | 299 kts | 175° |
| 2026-04-24 13:58 | 39.64601 | 125.46369 | 11057 ft | 300 kts | 175° |
| 2026-04-24 13:59 | 39.62533 | 125.46776 | 10791 ft | 300 kts | 174° |
| 2026-04-24 13:59 | 39.60503 | 125.47183 | 10537 ft | 300 kts | 174° |
| 2026-04-24 13:59 | 39.58449 | 125.47601 | 10270 ft | 296 kts | 174° |
| 2026-04-24 13:59 | 39.56430 | 125.48018 | 10009 ft | 292 kts | 174° |
| 2026-04-24 14:00 | 39.54442 | 125.48430 | 9745 ft | 288 kts | 174° |
| 2026-04-24 14:00 | 39.52470 | 125.48841 | 9487 ft | 284 kts | 174° |
| 2026-04-24 14:00 | 39.50539 | 125.49242 | 9226 ft | 280 kts | 174° |
| 2026-04-24 14:00 | 39.48636 | 125.49638 | 8991 ft | 276 kts | 174° |
| 2026-04-24 14:01 | 39.46741 | 125.50032 | 8756 ft | 275 kts | 174° |
| 2026-04-24 14:01 | 39.44846 | 125.50417 | 8497 ft | 276 kts | 176° |
| 2026-04-24 14:01 | 39.42955 | 125.50775 | 8271 ft | 273 kts | 174° |
| 2026-04-24 14:01 | 39.41088 | 125.51185 | 8025 ft | 270 kts | 173° |
| 2026-04-24 14:02 | 39.39245 | 125.51584 | 7776 ft | 267 kts | 174° |
| 2026-04-24 14:02 | 39.37420 | 125.51969 | 7539 ft | 263 kts | 174° |
| 2026-04-24 14:02 | 39.35665 | 125.52499 | 7326 ft | 259 kts | 172° |
| 2026-04-24 14:02 | 39.33883 | 125.52791 | 7069 ft | 256 kts | 176° |
| 2026-04-24 14:03 | 39.32143 | 125.53162 | 6864 ft | 250 kts | 175° |
| 2026-04-24 14:03 | 39.30447 | 125.53465 | 6600 ft | 242 kts | 175° |
| 2026-04-24 14:03 | 39.28797 | 125.53735 | 6320 ft | 234 kts | 186° |
| 2026-04-24 14:03 | 39.27231 | 125.53387 | 6028 ft | 223 kts | 188° |
| 2026-04-24 14:04 | 39.25699 | 125.53609 | 5807 ft | 220 kts | 167° |
| 2026-04-24 14:04 | 39.24267 | 125.54189 | 5654 ft | 214 kts | 168° |
| 2026-04-24 14:04 | 39.22831 | 125.54665 | 5552 ft | 214 kts | 169° |
| 2026-04-24 14:04 | 39.21380 | 125.55218 | 5306 ft | 222 kts | 165° |
| 2026-04-24 14:05 | 39.19938 | 125.55873 | 5103 ft | 219 kts | 164° |
| 2026-04-24 14:05 | 39.18514 | 125.56518 | 4892 ft | 214 kts | 164° |
| 2026-04-24 14:05 | 39.17142 | 125.57256 | 4686 ft | 215 kts | 156° |
| 2026-04-24 14:05 | 39.15780 | 125.58014 | 4428 ft | 212 kts | 167° |
| 2026-04-24 14:06 | 39.14360 | 125.58487 | 4188 ft | 212 kts | 169° |
| 2026-04-24 14:06 | 39.12945 | 125.59002 | 3963 ft | 209 kts | 166° |
| 2026-04-24 14:06 | 39.11590 | 125.59576 | 3768 ft | 199 kts | 166° |
| 2026-04-24 14:06 | 39.10289 | 125.60048 | 3658 ft | 193 kts | 168° |
| 2026-04-24 14:07 | 39.09000 | 125.60511 | 3513 ft | 192 kts | 166° |
| 2026-04-24 14:07 | 39.07731 | 125.60978 | 3325 ft | 188 kts | 167° |
| 2026-04-24 14:07 | 39.06632 | 125.61820 | 3155 ft | 194 kts | 128° |
| 2026-04-24 14:07 | 39.06309 | 125.63471 | 3021 ft | 198 kts | 82° |
| 2026-04-24 14:08 | 39.06709 | 125.65170 | 2852 ft | 201 kts | 73° |
| 2026-04-24 14:08 | 39.07109 | 125.66861 | 2662 ft | 202 kts | 75° |
| 2026-04-24 14:08 | 39.07525 | 125.68598 | 2425 ft | 201 kts | 75° |
| 2026-04-24 14:08 | 39.08049 | 125.70245 | 2247 ft | 201 kts | 53° |
| 2026-04-24 14:09 | 39.09152 | 125.71231 | 2164 ft | 191 kts | 8° |
| 2026-04-24 14:09 | 39.10412 | 125.70986 | 1991 ft | 187 kts | 337° |
| 2026-04-24 14:09 | 39.11634 | 125.70518 | 1661 ft | 180 kts | 346° |
| 2026-04-24 14:09 | 39.12802 | 125.70132 | 1433 ft | 165 kts | 339° |
| 2026-04-24 14:10 | 39.13500 | 125.69831 | 1302 ft | 156 kts | 340° |
| 2026-04-24 14:10 | 39.14808 | 125.69266 | 1022 ft | 143 kts | 340° |
| 2026-04-24 14:10 | 39.15756 | 125.68897 | 814 ft | 142 kts | 345° |
| 2026-04-24 14:10 | 39.16705 | 125.68560 | 640 ft | 141 kts | 344° |
| 2026-04-24 14:11 | 39.17642 | 125.68185 | 455 ft | 141 kts | 342° |
| 2026-04-24 14:11 | 39.18570 | 125.67803 | 261 ft | 139 kts | 342° |
| 2026-04-24 14:11 | 39.20239 | 125.67134 | 93 ft | 87 kts | 344° |
| 2026-04-24 14:12 | 39.20618 | 125.66990 | 92 ft | 31 kts | 343° |
| 2026-04-24 14:12 | 39.20728 | 125.66992 | 89 ft | 12 kts | 41° |
| 2026-04-24 14:12 | 39.20761 | 125.67086 | 89 ft | 11 kts | 72° |
| 2026-04-24 14:12 | 39.20768 | 125.67184 | 89 ft | 11 kts | 117° |
| 2026-04-24 14:13 | 39.20699 | 125.67225 | 91 ft | 11 kts | 162° |
| 2026-04-24 14:13 | 39.20627 | 125.67255 | 89 ft | 11 kts | 162° |
| 2026-04-24 14:13 | 39.20559 | 125.67284 | 92 ft | 10 kts | 162° |
| 2026-04-24 14:13 | 39.20492 | 125.67312 | 92 ft | 10 kts | 162° |
| 2026-04-24 14:14 | 39.20426 | 125.67339 | 91 ft | 10 kts | 163° |
| 2026-04-24 14:14 | 39.20355 | 125.67367 | 91 ft | 12 kts | 163° |
| 2026-04-24 14:14 | 39.20177 | 125.67436 | 91 ft | 18 kts | 163° |
| 2026-04-24 14:15 | 39.20094 | 125.67468 | 89 ft | 6 kts | 160° |
| 2026-04-24 14:15 | 39.20084 | 125.67528 | 91 ft | 4 kts | 73° |
| 2026-04-24 14:15 | 39.20088 | 125.67545 | 91 ft | 2 kts | 73° |
| 2026-04-24 14:15 | 39.20089 | 125.67547 | 91 ft | 0 kts | 73° |